Globe, Kentucky
Current Conditions -  °F | °C
As of 5:10 PM on Wednesday 28 Jan 2015 (Local Time) from KSYM Reporting Station
Clear Clear  
Wind Chill: 30°   Ceiling: Unl
Heat Index: 36°   Visibility: 10mi
Dew Point: 16°   Wind: 7mph
Humidity: 44%   Direction: 150°SSE
Pressure: 30.29"   Gusts: NA
Location:  38.3543°N, 83.1837°W
Report Text: KSYM 282210Z AUTO 15006KT 10SM CLR 02/M09 A3029 RMK AO2
Loading
Personal Weather Stations






























Interactive Weather Map New forecast layout! Learn more

10-Day Weather Forecast

Advertisements
Track Severe Weather on mobile